Terminal Aerodrome Forecast
Issued by NWS

Home | Current Version | Previous Version | Graphics & Text | Print | Product List | Glossary On
Versions: 1 2 3 4 5 6 7 8 9 10 11
428
FTUS43 KFGF 272329
TAFBJI
TAF
KBJI 272329Z 2800/2824 08012G20KT P6SM BKN250
     FM280200 07007KT P6SM BKN250=

USA.gov is the U.S. government's official web portal to all federal, state and local government web resources and services.